KSPS/SPS METAR and TAF weather

Enter ICAO airport designator
Station Type Date Time Source
KSPS METAR 2018/12/10 12:52 UTC NOAA

KSPS 101252Z 25007KT 10SM CLR M01/M02 A3034 RMK AO2 SLP279 T10111022


Station Type Date Time Source
KSPS Decoded METAR 2018/12/10 12:52 UTC NOAA

WICHITA FALLS SHEPPARD AFB, TX, United States (KSPS) 33-59N 98-30W 308M
Dec 10, 2018 - 07:52 AM EST / 2018.12.10 1252 UTC
Wind: from the WSW (250 degrees) at 8 MPH (7 KT):0
Visibility: 10 mile(s):0
Sky conditions: clear
Temperature: 30.0 F (-1.1 C)
Windchill: 23 F (-5 C):1
Dew Point: 28.0 F (-2.2 C)
Relative Humidity: 92%
Pressure (altimeter): 30.34 in. Hg (1027 hPa)
ob: KSPS 101252Z 25007KT 10SM CLR M01/M02 A3034 RMK AO2 SLP279 T10111022
cycle: 13

Station Type Date Time Source
KSPS TAF 2018/12/10 12:22 UTC NOAA

TAF KSPS 101120Z 1012/1112 28005KT P6SM SKC
FM102300 19006KT P6SM SKC


Example: see airport list